Condicions actuals
Partly Cloudy
Conditions



Pressió:
1014.92 (mb) - 29.97 (inHG)
Visibilitat:

10.0 (km) - 6.2 (miles)
Base de Núvols

762 (Mts) - 2500 (Feets)
   Temperatura
10  °C
Temperatura
4  °C
P. rosada
67  %
 Humitat
   Velocitat del Vent
16  km/h
9  kts
10  mph
4.5  m/s
   Wind Direction
N
45°
E
90°
135°
S
180°
225°
O
270°
315°
 90°

Del   Est
   Airport Data
LEBL
Barcelona International Airport
Metar :LEBL 252200Z 09009KT 9999 FEW025 BKN036 10/04 Q1015 NOSIG
Mon 25th January 23:00 pm
   Raw Metar Info
Raw METAR is the most common format in the world for the transmission of observational weather data. It is highly standardized through the International Civil Aviation Organization (ICAO), which allows it to be understood throughout most of the world.
   API Info
Data Provided by
https://www.checkwx.com/weather/LEBL

Aviation Weather providing METAR, TAF, AIRMET, SIGMET and OUTLOOK Weather Reports
   © Info
CSS/SVG/PHP scripts were developed by weather34.com for use in the weather34 template © 2015-2021

Guide Info provided by Metar-Wikipedia